Time;durP1;ratioP1;P1;durP2;ratioP2;P2;SDS_P1;SDS_P2;PMS_P1;PMS_P2;Temp;Humidity;BMP_temperature;BMP_pressure;BME280_temperature;BME280_humidity;BME280_pressure;Samples;Min_cycle;Max_cycle;Signal;HPM_P1;HPM_P2
2021/08/27 00:01:17;;;;;;;3.30;1.92;;;;;;;;;;5111425;27;20418;-68
2021/08/27 00:03:43;;;;;;;3.90;2.20;;;;;;;;;;5111155;28;20039;-68
2021/08/27 00:06:57;;;;;;;6.50;2.80;;;;;;;;;;5111507;27;20780;-68
2021/08/27 00:09:23;;;;;;;7.50;3.55;;;;;;;;;;5110981;28;20098;-69
2021/08/27 00:11:49;;;;;;;8.35;3.40;;;;;;;;;;5111221;28;20085;-69
2021/08/27 00:18:36;;;;;;;6.28;3.47;;;;;;;;;;5071179;27;20403;-68
2021/08/27 00:25:43;;;;;;;7.72;3.65;;;;;;;;;;5111693;27;20462;-67
2021/08/27 00:28:09;;;;;;;6.57;3.17;;;;;;;;;;5111322;28;20023;-67
2021/08/27 00:30:36;;;;;;;7.03;3.10;;;;;;;;;;5111041;28;20024;-68
2021/08/27 00:33:02;;;;;;;9.23;3.78;;;;;;;;;;5111487;28;20392;-68
2021/08/27 00:35:29;;;;;;;6.72;3.72;;;;;;;;;;5111164;28;20020;-69
2021/08/27 00:37:55;;;;;;;6.03;2.70;;;;;;;;;;5110833;28;20523;-69
2021/08/27 00:41:24;;;;;;;5.68;2.85;;;;;;;;;;5071441;28;20811;-68
2021/08/27 00:43:50;;;;;;;5.22;2.67;;;;;;;;;;5069474;28;20382;-70
2021/08/27 00:46:16;;;;;;;7.43;2.97;;;;;;;;;;5070302;28;20027;-68
2021/08/27 00:48:44;;;;;;;4.07;2.10;;;;;;;;;;5070934;28;20029;-68
2021/08/27 00:51:10;;;;;;;4.60;2.33;;;;;;;;;;5070952;28;20029;-68
2021/08/27 00:53:36;;;;;;;4.80;2.75;;;;;;;;;;5070158;28;20470;-68
2021/08/27 00:56:03;;;;;;;6.13;2.70;;;;;;;;;;5070530;28;20036;-68
2021/08/27 00:58:29;;;;;;;4.65;2.50;;;;;;;;;;5070164;28;20021;-69
2021/08/27 01:00:55;;;;;;;4.32;2.53;;;;;;;;;;5070324;28;20111;-68
2021/08/27 01:03:21;;;;;;;4.97;2.50;;;;;;;;;;5070353;28;20092;-68
2021/08/27 01:06:04;;;;;;;5.18;2.20;;;;;;;;;;5069921;28;20032;-68
2021/08/27 01:10:32;;;;;;;10.02;3.15;;;;;;;;;;5152523;27;20382;-67
2021/08/27 01:13:20;;;;;;;3.08;1.85;;;;;;;;;;5131377;28;20035;-67
2021/08/27 01:16:01;;;;;;;3.70;2.05;;;;;;;;;;5113242;28;20027;-68
2021/08/27 01:18:33;;;;;;;9.10;2.50;;;;;;;;;;5131799;28;20019;-68
2021/08/27 01:21:11;;;;;;;2.90;2.03;;;;;;;;;;5131439;28;20031;-68
2021/08/27 01:23:42;;;;;;;4.15;2.00;;;;;;;;;;5131884;28;20027;-68
2021/08/27 01:26:09;;;;;;;4.18;2.40;;;;;;;;;;5131795;28;20019;-68
2021/08/27 01:28:37;;;;;;;4.70;1.92;;;;;;;;;;5130995;28;20413;-68
2021/08/27 01:31:16;;;;;;;4.68;2.25;;;;;;;;;;5131449;28;20475;-68
2021/08/27 01:33:48;;;;;;;7.78;2.40;;;;;;;;;;5112551;28;20027;-68
2021/08/27 01:39:13;;;;;;;5.13;2.08;;;;;;;;;;5111787;27;20992;-67
2021/08/27 01:41:41;;;;;;;4.80;2.20;;;;;;;;;;5109647;28;20032;-67
2021/08/27 01:45:53;;;;;;;5.78;2.90;;;;;;;;;;5111614;27;20416;-67
2021/08/27 01:48:20;;;;;;;4.95;2.25;;;;;;;;;;5111052;28;20099;-67
2021/08/27 01:50:47;;;;;;;6.28;2.90;;;;;;;;;;5111223;28;20090;-67
2021/08/27 01:55:14;;;;;;;6.38;3.08;;;;;;;;;;5111147;27;20521;-67
2021/08/27 01:58:55;;;;;;;10.43;2.88;;;;;;;;;;5111815;27;20937;-68
2021/08/27 02:01:22;;;;;;;4.70;2.03;;;;;;;;;;5111238;28;20357;-68
2021/08/27 02:03:50;;;;;;;5.75;2.55;;;;;;;;;;5110887;28;20028;-68
2021/08/27 02:06:16;;;;;;;4.95;2.67;;;;;;;;;;5109938;28;20488;-68
2021/08/27 02:08:43;;;;;;;6.28;3.10;;;;;;;;;;5111381;28;20026;-68
2021/08/27 02:14:15;;;;;;;5.78;3.25;;;;;;;;;;5112087;27;20830;-67
2021/08/27 02:16:42;;;;;;;5.70;3.00;;;;;;;;;;5110993;28;20032;-67
2021/08/27 02:19:08;;;;;;;6.80;3.15;;;;;;;;;;5111213;28;20515;-67
2021/08/27 02:28:02;;;;;;;7.65;3.58;;;;;;;;;;5111240;27;20412;-67
2021/08/27 02:32:06;;;;;;;6.80;3.17;;;;;;;;;;5111057;27;20388;-69
2021/08/27 02:34:34;;;;;;;7.07;3.80;;;;;;;;;;5110037;28;20488;-67
2021/08/27 02:38:51;;;;;;;7.93;3.63;;;;;;;;;;5110976;27;20766;-67
2021/08/27 02:41:31;;;;;;;4.72;2.90;;;;;;;;;;5112001;27;20376;-67
2021/08/27 02:43:57;;;;;;;6.13;3.20;;;;;;;;;;5111123;28;20024;-68
2021/08/27 02:46:24;;;;;;;6.80;3.70;;;;;;;;;;5111259;28;20028;-67
2021/08/27 02:48:50;;;;;;;8.25;3.42;;;;;;;;;;5111265;28;20484;-69
2021/08/27 02:51:19;;;;;;;7.57;3.90;;;;;;;;;;5109457;28;20472;-69
2021/08/27 02:53:50;;;;;;;5.70;3.05;;;;;;;;;;5111430;28;20060;-69
2021/08/27 02:56:26;;;;;;;6.45;2.97;;;;;;;;;;5110108;28;20031;-69
2021/08/27 02:59:54;;;;;;;6.20;3.67;;;;;;;;;;5111089;27;20731;-68
2021/08/27 03:04:19;;;;;;;8.02;4.00;;;;;;;;;;5111602;27;20496;-70
2021/08/27 03:07:15;;;;;;;9.00;4.57;;;;;;;;;;5110928;27;20411;-67
2021/08/27 03:10:04;;;;;;;20.38;5.13;;;;;;;;;;5111559;27;20408;-68
2021/08/27 03:15:16;;;;;;;7.20;3.85;;;;;;;;;;5111643;27;20426;-68
2021/08/27 03:17:42;;;;;;;6.68;3.88;;;;;;;;;;5111299;28;20024;-67
2021/08/27 03:23:01;;;;;;;7.60;3.72;;;;;;;;;;5111313;27;20385;-67
2021/08/27 03:25:28;;;;;;;6.15;3.58;;;;;;;;;;5111329;28;20487;-67
2021/08/27 03:27:59;;;;;;;7.50;3.42;;;;;;;;;;5110877;28;20035;-67
2021/08/27 03:30:29;;;;;;;5.60;3.30;;;;;;;;;;5111542;28;20027;-69
2021/08/27 03:32:59;;;;;;;5.13;3.17;;;;;;;;;;5111179;28;20424;-68
2021/08/27 03:35:26;;;;;;;5.93;3.17;;;;;;;;;;5110805;28;20032;-67
2021/08/27 03:37:52;;;;;;;5.85;3.17;;;;;;;;;;5111127;28;20375;-68
2021/08/27 03:40:20;;;;;;;7.28;3.65;;;;;;;;;;5110640;28;20081;-68
2021/08/27 03:47:13;;;;;;;7.63;3.90;;;;;;;;;;5111796;27;20442;-68
2021/08/27 03:49:39;;;;;;;8.45;4.63;;;;;;;;;;5127094;28;20039;-68
2021/08/27 03:52:06;;;;;;;8.90;4.05;;;;;;;;;;5111210;28;20030;-68
2021/08/27 03:54:32;;;;;;;8.45;4.70;;;;;;;;;;5111227;28;20479;-68
2021/08/27 03:59:11;;;;;;;5.95;3.63;;;;;;;;;;5111889;27;20921;-71
2021/08/27 04:04:20;;;;;;;5.60;3.53;;;;;;;;;;5111587;27;20997;-69
2021/08/27 04:06:59;;;;;;;8.85;3.83;;;;;;;;;;5111393;28;20036;-69
2021/08/27 04:09:27;;;;;;;5.53;3.40;;;;;;;;;;5110866;28;20024;-68
2021/08/27 04:12:56;;;;;;;7.15;4.03;;;;;;;;;;5111731;27;20396;-70
2021/08/27 04:18:11;;;;;;;5.10;2.90;;;;;;;;;;5071524;28;20469;-69
2021/08/27 04:20:37;;;;;;;6.57;3.80;;;;;;;;;;5069526;28;20032;-68
2021/08/27 04:23:42;;;;;;;8.75;4.50;;;;;;;;;;5131559;27;20846;-67
2021/08/27 04:26:09;;;;;;;8.75;4.82;;;;;;;;;;5111296;28;20476;-67
2021/08/27 04:28:35;;;;;;;8.32;4.05;;;;;;;;;;5093017;28;20388;-67
2021/08/27 04:31:01;;;;;;;8.55;4.32;;;;;;;;;;5110801;28;20024;-67
2021/08/27 04:35:47;;;;;;;7.85;3.75;;;;;;;;;;5112128;27;20497;-69
2021/08/27 04:39:40;;;;;;;7.00;3.67;;;;;;;;;;5111564;27;20316;-69
2021/08/27 04:42:07;;;;;;;6.35;3.42;;;;;;;;;;5111259;28;20028;-68
2021/08/27 04:46:13;;;;;;;6.68;3.33;;;;;;;;;;5111669;27;20385;-67
2021/08/27 04:49:05;;;;;;;6.68;3.80;;;;;;;;;;5111531;27;20560;-68
2021/08/27 04:51:31;;;;;;;7.82;4.30;;;;;;;;;;5110896;28;20460;-69
2021/08/27 04:53:57;;;;;;;7.30;4.03;;;;;;;;;;5111213;28;20023;-69
2021/08/27 04:59:27;;;;;;;8.65;3.40;;;;;;;;;;5111150;27;20401;-69
2021/08/27 05:01:53;;;;;;;7.00;4.05;;;;;;;;;;5111357;28;20020;-69
2021/08/27 05:04:19;;;;;;;7.65;3.83;;;;;;;;;;5111312;28;20088;-70
2021/08/27 05:06:45;;;;;;;6.72;3.70;;;;;;;;;;5111027;28;20020;-69
2021/08/27 05:09:29;;;;;;;6.25;3.53;;;;;;;;;;5071201;28;20402;-68
2021/08/27 05:11:55;;;;;;;11.40;3.85;;;;;;;;;;5069061;28;20025;-69
2021/08/27 05:14:21;;;;;;;7.30;3.78;;;;;;;;;;5070653;28;20020;-68
2021/08/27 05:16:48;;;;;;;7.95;3.72;;;;;;;;;;5069536;28;20021;-72
2021/08/27 05:19:28;;;;;;;5.60;2.90;;;;;;;;;;5111604;27;20949;-71
2021/08/27 05:23:45;;;;;;;6.45;3.15;;;;;;;;;;5069948;28;20384;-70
2021/08/27 05:26:12;;;;;;;5.75;3.00;;;;;;;;;;5070075;28;20032;-68
2021/08/27 05:28:38;;;;;;;6.60;2.90;;;;;;;;;;5070544;28;20396;-68
2021/08/27 05:31:04;;;;;;;4.57;2.63;;;;;;;;;;5070346;28;20074;-68
2021/08/27 05:33:30;;;;;;;5.32;2.65;;;;;;;;;;5070068;28;20443;-71
2021/08/27 05:35:56;;;;;;;4.85;2.60;;;;;;;;;;5068820;28;20025;-70
2021/08/27 05:39:44;;;;;;;4.75;2.40;;;;;;;;;;5110225;27;20481;-67
2021/08/27 05:42:10;;;;;;;5.80;2.63;;;;;;;;;;5110643;28;20028;-67
2021/08/27 05:44:36;;;;;;;8.60;3.03;;;;;;;;;;5111141;28;20491;-68
2021/08/27 05:47:02;;;;;;;5.75;3.08;;;;;;;;;;5110462;28;20077;-68
2021/08/27 05:49:29;;;;;;;5.90;2.53;;;;;;;;;;5110922;28;20040;-67
2021/08/27 05:51:55;;;;;;;6.65;3.20;;;;;;;;;;5110809;28;20055;-67
2021/08/27 05:54:21;;;;;;;7.47;3.60;;;;;;;;;;5110487;28;20070;-68
2021/08/27 05:56:47;;;;;;;6.22;3.35;;;;;;;;;;5109126;28;20050;-68
2021/08/27 05:59:14;;;;;;;9.63;3.40;;;;;;;;;;5108782;28;20059;-68
2021/08/27 06:01:40;;;;;;;7.13;3.45;;;;;;;;;;5110101;28;20035;-67
2021/08/27 06:04:06;;;;;;;10.27;3.95;;;;;;;;;;5108467;28;20041;-67
2021/08/27 06:08:22;;;;;;;5.32;3.03;;;;;;;;;;5109937;27;20451;-67
2021/08/27 06:10:48;;;;;;;6.57;2.80;;;;;;;;;;5110693;28;20118;-67
2021/08/27 06:13:14;;;;;;;6.78;3.83;;;;;;;;;;5110902;28;20024;-68
2021/08/27 06:15:43;;;;;;;11.50;3.42;;;;;;;;;;5109349;28;20028;-68
2021/08/27 06:18:20;;;;;;;6.50;3.22;;;;;;;;;;5090927;27;20926;-67
2021/08/27 06:20:48;;;;;;;6.30;3.35;;;;;;;;;;5090765;28;20396;-67
2021/08/27 06:23:14;;;;;;;6.40;2.90;;;;;;;;;;5089246;28;20017;-68
2021/08/27 06:25:41;;;;;;;8.75;3.70;;;;;;;;;;5088819;28;20024;-67
2021/08/27 06:28:07;;;;;;;8.18;4.15;;;;;;;;;;5088501;28;20488;-68
2021/08/27 06:32:32;;;;;;;5.47;2.78;;;;;;;;;;5106915;27;20830;-69
2021/08/27 06:34:58;;;;;;;8.38;3.60;;;;;;;;;;5099645;28;20476;-70
2021/08/27 06:38:37;;;;;;;7.68;3.45;;;;;;;;;;5108481;27;20324;-73
2021/08/27 06:42:12;;;;;;;8.80;4.45;;;;;;;;;;5110484;27;20389;-72
2021/08/27 06:44:38;;;;;;;7.95;4.07;;;;;;;;;;5110719;28;20078;-73
2021/08/27 06:47:04;;;;;;;6.47;3.67;;;;;;;;;;5107154;28;20450;-72
2021/08/27 06:49:30;;;;;;;8.45;4.00;;;;;;;;;;5110472;28;20103;-73
2021/08/27 06:51:57;;;;;;;6.47;3.75;;;;;;;;;;5108963;28;20089;-73
2021/08/27 06:54:23;;;;;;;8.00;3.55;;;;;;;;;;5106140;28;20050;-73
2021/08/27 06:59:03;;;;;;;9.75;4.50;;;;;;;;;;5169479;27;20317;-73
2021/08/27 07:01:29;;;;;;;7.72;3.78;;;;;;;;;;5150580;27;20038;-75
2021/08/27 07:04:50;;;;;;;10.80;4.40;;;;;;;;;;5108416;27;20399;-74
2021/08/27 07:07:17;;;;;;;8.93;4.30;;;;;;;;;;5123449;28;20488;-72
2021/08/27 07:09:43;;;;;;;7.80;3.83;;;;;;;;;;5107312;28;20029;-71
2021/08/27 07:12:11;;;;;;;10.77;4.72;;;;;;;;;;5101521;28;20491;-70
2021/08/27 07:14:38;;;;;;;6.70;4.25;;;;;;;;;;5094581;28;20051;-67
2021/08/27 07:17:04;;;;;;;8.27;4.47;;;;;;;;;;5088855;28;20028;-66
2021/08/27 07:19:30;;;;;;;7.57;4.10;;;;;;;;;;5092190;28;20020;-67
2021/08/27 07:22:17;;;;;;;8.18;4.15;;;;;;;;;;5069930;28;20926;-66
2021/08/27 07:24:43;;;;;;;8.98;4.40;;;;;;;;;;5070289;28;20060;-66
2021/08/27 07:27:10;;;;;;;10.02;4.90;;;;;;;;;;5066687;28;20025;-66
2021/08/27 07:29:36;;;;;;;9.20;4.90;;;;;;;;;;5068370;28;20017;-67
2021/08/27 07:32:03;;;;;;;9.68;4.30;;;;;;;;;;5067086;28;20060;-67
2021/08/27 07:34:29;;;;;;;15.45;5.13;;;;;;;;;;5069905;28;20063;-68
2021/08/27 07:36:55;;;;;;;9.27;4.97;;;;;;;;;;5068355;28;20024;-67
2021/08/27 07:39:22;;;;;;;10.43;4.38;;;;;;;;;;5047785;28;20029;-67
2021/08/27 07:41:48;;;;;;;8.90;4.57;;;;;;;;;;5053209;28;20531;-67
2021/08/27 07:44:14;;;;;;;9.15;4.13;;;;;;;;;;5067201;28;20033;-67
2021/08/27 07:46:40;;;;;;;8.20;3.83;;;;;;;;;;5051006;28;20041;-68
2021/08/27 07:49:06;;;;;;;9.15;4.40;;;;;;;;;;5048039;28;20060;-67
2021/08/27 07:51:33;;;;;;;8.82;4.18;;;;;;;;;;5047999;28;20028;-67
2021/08/27 07:53:59;;;;;;;9.60;4.75;;;;;;;;;;5048915;28;20025;-67
2021/08/27 07:56:25;;;;;;;10.95;4.68;;;;;;;;;;5049354;28;20478;-66
2021/08/27 07:58:51;;;;;;;8.10;3.75;;;;;;;;;;5047766;28;20032;-65
2021/08/27 08:03:24;;;;;;;10.35;3.60;;;;;;;;;;5109662;27;20419;-65
2021/08/27 08:05:50;;;;;;;9.43;4.28;;;;;;;;;;5109738;28;20032;-66
2021/08/27 08:08:16;;;;;;;9.02;4.93;;;;;;;;;;5124923;28;20042;-66
2021/08/27 08:10:42;;;;;;;12.75;5.45;;;;;;;;;;5110030;28;20424;-65
2021/08/27 08:13:08;;;;;;;13.20;5.90;;;;;;;;;;5110801;28;20103;-66
2021/08/27 08:15:36;;;;;;;9.48;4.85;;;;;;;;;;5110107;28;20062;-67
2021/08/27 08:18:02;;;;;;;8.32;4.93;;;;;;;;;;5110723;28;20073;-68
2021/08/27 08:20:29;;;;;;;11.23;4.53;;;;;;;;;;5091174;28;20028;-67
2021/08/27 08:22:56;;;;;;;10.55;4.78;;;;;;;;;;5089898;28;20416;-67
2021/08/27 08:25:23;;;;;;;10.60;4.97;;;;;;;;;;5090342;28;20537;-67
2021/08/27 08:27:49;;;;;;;11.27;5.30;;;;;;;;;;5094547;28;20114;-68
2021/08/27 08:30:15;;;;;;;10.30;5.00;;;;;;;;;;5110156;28;20016;-68
2021/08/27 08:32:41;;;;;;;12.30;5.50;;;;;;;;;;5110427;28;20035;-67
2021/08/27 08:35:08;;;;;;;8.13;4.90;;;;;;;;;;5109068;28;20049;-68
2021/08/27 08:37:34;;;;;;;13.02;4.85;;;;;;;;;;5109778;28;20024;-67
2021/08/27 08:40:00;;;;;;;7.40;4.43;;;;;;;;;;5110292;28;20528;-68
2021/08/27 08:42:26;;;;;;;7.32;4.15;;;;;;;;;;5110327;28;20066;-68
2021/08/27 08:46:27;;;;;;;7.90;4.50;;;;;;;;;;5110167;27;20318;-66
2021/08/27 08:48:54;;;;;;;9.23;4.75;;;;;;;;;;5087498;28;20021;-68
2021/08/27 08:51:24;;;;;;;9.13;4.40;;;;;;;;;;5088221;28;20025;-70
2021/08/27 08:53:50;;;;;;;8.60;3.88;;;;;;;;;;5088493;28;20060;-68
2021/08/27 08:56:17;;;;;;;8.50;4.25;;;;;;;;;;5089746;28;20066;-69
2021/08/27 08:58:44;;;;;;;8.90;4.28;;;;;;;;;;5076413;28;20045;-71
2021/08/27 09:01:16;;;;;;;8.80;4.50;;;;;;;;;;5084602;28;20036;-69
2021/08/27 09:03:43;;;;;;;8.05;3.80;;;;;;;;;;5089410;28;20354;-71
2021/08/27 09:06:09;;;;;;;6.63;3.30;;;;;;;;;;5081432;28;20079;-67
2021/08/27 09:08:43;;;;;;;8.05;3.60;;;;;;;;;;5068643;28;20106;-67
2021/08/27 09:11:23;;;;;;;7.32;3.63;;;;;;;;;;5068824;28;20043;-67
2021/08/27 09:13:59;;;;;;;10.20;3.50;;;;;;;;;;5069412;28;20032;-67
2021/08/27 09:16:27;;;;;;;8.45;3.97;;;;;;;;;;5080435;28;20028;-67
2021/08/27 09:20:14;;;;;;;8.23;4.25;;;;;;;;;;5172175;27;20677;-68
2021/08/27 09:22:48;;;;;;;6.47;3.47;;;;;;;;;;5150442;27;20046;-67
2021/08/27 09:25:15;;;;;;;8.98;3.95;;;;;;;;;;5131276;27;20535;-67
2021/08/27 09:28:00;;;;;;;10.73;3.85;;;;;;;;;;5149659;27;20080;-68
2021/08/27 09:30:26;;;;;;;7.50;3.53;;;;;;;;;;5150130;27;20027;-68
2021/08/27 09:32:54;;;;;;;5.97;3.75;;;;;;;;;;5150134;27;20057;-67
2021/08/27 09:35:22;;;;;;;6.93;3.92;;;;;;;;;;5151043;27;20047;-67
2021/08/27 09:37:49;;;;;;;8.52;3.42;;;;;;;;;;5151143;27;20023;-66
2021/08/27 09:40:17;;;;;;;6.60;3.65;;;;;;;;;;5151229;27;20400;-69
2021/08/27 09:42:44;;;;;;;8.20;4.28;;;;;;;;;;5133398;27;20027;-69
2021/08/27 09:45:11;;;;;;;7.22;3.80;;;;;;;;;;5151792;27;20050;-69
2021/08/27 09:47:38;;;;;;;6.53;3.55;;;;;;;;;;5151426;27;20019;-69
2021/08/27 09:50:20;;;;;;;6.35;3.10;;;;;;;;;;5151524;27;20106;-67
2021/08/27 09:52:53;;;;;;;7.97;3.70;;;;;;;;;;5150872;27;20030;-69
2021/08/27 09:55:19;;;;;;;10.15;3.78;;;;;;;;;;5149566;27;20283;-66
2021/08/27 09:57:45;;;;;;;6.07;3.30;;;;;;;;;;5132920;27;20387;-68
2021/08/27 10:00:18;;;;;;;8.00;4.25;;;;;;;;;;5151148;27;20027;-67
2021/08/27 10:02:45;;;;;;;8.23;3.42;;;;;;;;;;5132720;27;20440;-69
2021/08/27 10:05:12;;;;;;;8.25;3.72;;;;;;;;;;5151493;27;20045;-69
2021/08/27 10:07:39;;;;;;;7.03;3.90;;;;;;;;;;5150940;27;20019;-68
2021/08/27 10:10:06;;;;;;;9.90;3.30;;;;;;;;;;5150853;27;20015;-69
2021/08/27 10:12:36;;;;;;;6.18;3.00;;;;;;;;;;5151281;27;20475;-69
2021/08/27 10:15:04;;;;;;;7.38;3.28;;;;;;;;;;5151242;27;20027;-70
2021/08/27 10:17:30;;;;;;;7.63;3.25;;;;;;;;;;5151338;27;20020;-69
2021/08/27 10:19:57;;;;;;;6.50;3.47;;;;;;;;;;5150636;27;20055;-69
2021/08/27 10:22:23;;;;;;;8.35;3.17;;;;;;;;;;5150815;27;20027;-69
2021/08/27 10:24:50;;;;;;;7.35;3.38;;;;;;;;;;5151325;27;20102;-67
2021/08/27 10:27:16;;;;;;;6.32;3.38;;;;;;;;;;5150171;27;20019;-69
2021/08/27 10:29:50;;;;;;;7.32;3.70;;;;;;;;;;5147027;27;20019;-68
2021/08/27 10:32:36;;;;;;;4.85;2.60;;;;;;;;;;5136220;27;20094;-69
2021/08/27 10:35:02;;;;;;;7.85;3.08;;;;;;;;;;5135513;27;20042;-70
2021/08/27 10:37:41;;;;;;;8.10;3.65;;;;;;;;;;5136623;27;20038;-70
2021/08/27 10:40:22;;;;;;;5.43;3.17;;;;;;;;;;5136822;27;20038;-68
2021/08/27 10:42:58;;;;;;;6.70;3.60;;;;;;;;;;5136577;27;20023;-69
2021/08/27 10:45:34;;;;;;;6.80;3.47;;;;;;;;;;5117666;27;20015;-68
2021/08/27 10:48:09;;;;;;;5.43;3.03;;;;;;;;;;5136800;27;20023;-69
2021/08/27 10:50:36;;;;;;;8.05;3.40;;;;;;;;;;5136239;27;20019;-69
2021/08/27 10:53:21;;;;;;;6.20;3.10;;;;;;;;;;5117155;27;20418;-68
2021/08/27 10:55:47;;;;;;;7.70;2.97;;;;;;;;;;5136572;27;20019;-68
2021/08/27 10:58:14;;;;;;;6.72;3.25;;;;;;;;;;5134133;27;20372;-70
2021/08/27 11:00:41;;;;;;;5.20;2.78;;;;;;;;;;5136193;27;20027;-68
2021/08/27 11:03:09;;;;;;;6.15;2.88;;;;;;;;;;5136648;27;20019;-69
2021/08/27 11:05:36;;;;;;;6.60;2.88;;;;;;;;;;5136172;27;20470;-70
2021/08/27 11:08:03;;;;;;;8.02;2.90;;;;;;;;;;5136313;27;20027;-68
2021/08/27 11:10:29;;;;;;;7.05;3.40;;;;;;;;;;5117558;27;20110;-68
2021/08/27 11:13:00;;;;;;;6.90;2.72;;;;;;;;;;5136454;27;20023;-68
2021/08/27 11:15:33;;;;;;;7.10;3.13;;;;;;;;;;5136347;27;20152;-68
2021/08/27 11:18:08;;;;;;;4.68;2.67;;;;;;;;;;5117148;27;20479;-68
2021/08/27 11:20:34;;;;;;;4.95;2.60;;;;;;;;;;5136406;27;20052;-69
2021/08/27 11:23:00;;;;;;;8.57;2.90;;;;;;;;;;5136273;27;20023;-69
2021/08/27 11:25:27;;;;;;;7.65;3.03;;;;;;;;;;5117295;27;20027;-68
2021/08/27 11:28:10;;;;;;;3.95;2.28;;;;;;;;;;5136053;27;20034;-68
2021/08/27 11:30:38;;;;;;;4.50;2.05;;;;;;;;;;5136174;27;20071;-69
2021/08/27 11:33:04;;;;;;;4.45;2.33;;;;;;;;;;5135769;27;20026;-68
2021/08/27 11:35:30;;;;;;;5.45;2.65;;;;;;;;;;5136000;27;20098;-70
2021/08/27 11:37:58;;;;;;;6.25;3.00;;;;;;;;;;5135765;27;20387;-68
2021/08/27 11:40:25;;;;;;;9.13;2.60;;;;;;;;;;5117006;27;20023;-68
2021/08/27 11:42:55;;;;;;;6.90;2.28;;;;;;;;;;5116304;27;20043;-66
2021/08/27 11:45:25;;;;;;;5.95;2.13;;;;;;;;;;5135800;27;20511;-68
2021/08/27 11:47:51;;;;;;;6.28;2.60;;;;;;;;;;5135516;27;20087;-69
2021/08/27 11:50:35;;;;;;;7.00;2.38;;;;;;;;;;5117312;27;20126;-69
2021/08/27 11:53:02;;;;;;;5.55;3.13;;;;;;;;;;5135268;27;20027;-68
2021/08/27 11:55:29;;;;;;;6.68;3.00;;;;;;;;;;5135670;27;20027;-68
2021/08/27 11:57:56;;;;;;;4.20;2.28;;;;;;;;;;5135364;27;20027;-69
2021/08/27 12:00:32;;;;;;;6.13;3.00;;;;;;;;;;5116730;27;20119;-69
2021/08/27 12:02:58;;;;;;;7.35;3.20;;;;;;;;;;5117014;27;20034;-69
2021/08/27 12:05:25;;;;;;;5.28;2.38;;;;;;;;;;5135396;27;20019;-69
2021/08/27 12:07:55;;;;;;;5.25;2.90;;;;;;;;;;5134954;27;20047;-68
2021/08/27 12:10:22;;;;;;;4.20;2.30;;;;;;;;;;5135262;27;20428;-68
2021/08/27 12:12:49;;;;;;;4.78;2.00;;;;;;;;;;5116886;27;20031;-68
2021/08/27 12:15:19;;;;;;;4.75;2.05;;;;;;;;;;5134814;27;20057;-68
2021/08/27 12:17:59;;;;;;;4.72;2.67;;;;;;;;;;5134848;27;20092;-68
2021/08/27 12:20:26;;;;;;;5.15;2.30;;;;;;;;;;5134443;27;20035;-69
2021/08/27 12:22:59;;;;;;;5.30;2.65;;;;;;;;;;5114993;27;20031;-70
2021/08/27 12:25:28;;;;;;;9.30;3.72;;;;;;;;;;5096377;28;20384;-69
2021/08/27 12:27:55;;;;;;;5.88;2.58;;;;;;;;;;5113894;28;20126;-68
2021/08/27 12:30:22;;;;;;;6.57;2.80;;;;;;;;;;5096013;28;20445;-68
2021/08/27 12:32:48;;;;;;;3.45;2.13;;;;;;;;;;5095879;28;20020;-68
2021/08/27 12:35:20;;;;;;;6.88;2.88;;;;;;;;;;5095419;28;20153;-69
2021/08/27 12:37:48;;;;;;;6.70;2.63;;;;;;;;;;5112650;28;20027;-68
2021/08/27 12:40:15;;;;;;;6.65;2.80;;;;;;;;;;5112211;27;20034;-69
2021/08/27 12:43:00;;;;;;;3.85;1.95;;;;;;;;;;5133870;27;20015;-70
2021/08/27 12:45:26;;;;;;;5.60;2.30;;;;;;;;;;5134673;27;20417;-69
2021/08/27 12:48:03;;;;;;;3.80;2.15;;;;;;;;;;5116006;27;20499;-70
2021/08/27 12:50:29;;;;;;;5.88;2.50;;;;;;;;;;5134234;27;20353;-68
2021/08/27 12:53:00;;;;;;;5.93;2.30;;;;;;;;;;5115832;28;20027;-70
2021/08/27 12:55:28;;;;;;;4.05;1.95;;;;;;;;;;5134380;27;20019;-72
2021/08/27 12:57:54;;;;;;;5.13;2.55;;;;;;;;;;5115676;27;20080;-72
2021/08/27 13:00:25;;;;;;;4.38;2.28;;;;;;;;;;5134439;27;20106;-72
2021/08/27 13:02:52;;;;;;;4.57;2.00;;;;;;;;;;5115666;27;20075;-72
2021/08/27 13:05:40;;;;;;;3.60;2.03;;;;;;;;;;5134563;27;20023;-72
2021/08/27 13:08:16;;;;;;;5.97;2.03;;;;;;;;;;5115946;27;20052;-72
2021/08/27 13:11:01;;;;;;;3.40;1.65;;;;;;;;;;5134057;27;20027;-69
2021/08/27 13:13:29;;;;;;;5.00;2.08;;;;;;;;;;5133963;27;20130;-69
2021/08/27 13:16:05;;;;;;;3.90;2.10;;;;;;;;;;5134350;27;20023;-69
2021/08/27 13:18:42;;;;;;;3.75;1.80;;;;;;;;;;5133658;28;20044;-71
2021/08/27 13:21:08;;;;;;;2.75;1.50;;;;;;;;;;5116007;28;20481;-67
2021/08/27 13:23:34;;;;;;;4.40;1.95;;;;;;;;;;5134488;28;20019;-69
2021/08/27 13:26:03;;;;;;;6.13;1.95;;;;;;;;;;5134001;28;20031;-70
2021/08/27 13:28:31;;;;;;;3.67;2.03;;;;;;;;;;5134327;28;20015;-71
2021/08/27 13:30:57;;;;;;;5.30;2.03;;;;;;;;;;5134500;28;20023;-71
2021/08/27 13:33:24;;;;;;;4.65;2.00;;;;;;;;;;5134326;28;20015;-70
2021/08/27 13:35:50;;;;;;;3.40;1.50;;;;;;;;;;5134429;28;20031;-70
2021/08/27 13:38:17;;;;;;;4.82;2.20;;;;;;;;;;5134053;28;20099;-71
2021/08/27 13:40:43;;;;;;;5.13;2.28;;;;;;;;;;5134476;28;20027;-70
2021/08/27 13:43:09;;;;;;;3.28;1.77;;;;;;;;;;5134411;28;20024;-71
2021/08/27 13:45:35;;;;;;;5.68;2.05;;;;;;;;;;5133777;28;20039;-69
2021/08/27 13:48:01;;;;;;;3.53;1.58;;;;;;;;;;5134196;28;20094;-70
2021/08/27 13:50:28;;;;;;;6.18;2.00;;;;;;;;;;5134049;28;20050;-70
2021/08/27 13:52:54;;;;;;;5.00;2.33;;;;;;;;;;5115355;28;20031;-70
2021/08/27 13:55:22;;;;;;;5.93;2.30;;;;;;;;;;5134376;28;20023;-70
2021/08/27 13:57:48;;;;;;;3.20;1.50;;;;;;;;;;5134058;28;20019;-70
2021/08/27 14:00:15;;;;;;;4.28;1.90;;;;;;;;;;5133720;28;20090;-70
2021/08/27 14:02:42;;;;;;;5.60;2.00;;;;;;;;;;5134110;28;20519;-70
2021/08/27 14:05:09;;;;;;;3.95;1.67;;;;;;;;;;5134943;27;20046;-70
2021/08/27 14:07:36;;;;;;;4.60;2.17;;;;;;;;;;5137518;27;20501;-70
2021/08/27 14:10:04;;;;;;;2.72;1.50;;;;;;;;;;5119398;27;20024;-70
2021/08/27 14:12:30;;;;;;;5.97;1.98;;;;;;;;;;5119351;27;20019;-70
2021/08/27 14:14:56;;;;;;;5.57;1.90;;;;;;;;;;5137442;27;20023;-70
2021/08/27 14:17:22;;;;;;;3.15;1.42;;;;;;;;;;5137863;27;20106;-70
2021/08/27 14:19:49;;;;;;;6.15;2.10;;;;;;;;;;5137401;27;20047;-70
2021/08/27 14:22:15;;;;;;;6.32;1.75;;;;;;;;;;5137161;27;20043;-70
2021/08/27 14:24:41;;;;;;;5.10;1.70;;;;;;;;;;5137793;27;20027;-70
2021/08/27 14:27:07;;;;;;;4.63;1.83;;;;;;;;;;5137422;27;20124;-70
2021/08/27 14:29:34;;;;;;;5.55;1.70;;;;;;;;;;5118660;27;20031;-70
2021/08/27 14:32:02;;;;;;;3.25;1.58;;;;;;;;;;5137847;27;20382;-70
2021/08/27 14:34:29;;;;;;;3.63;1.77;;;;;;;;;;5136983;27;20361;-70
2021/08/27 14:36:55;;;;;;;6.35;1.88;;;;;;;;;;5137296;27;20023;-70
2021/08/27 14:39:21;;;;;;;2.33;1.23;;;;;;;;;;5137291;27;20028;-70
2021/08/27 14:41:47;;;;;;;3.80;1.70;;;;;;;;;;5136950;27;20072;-69
2021/08/27 14:44:14;;;;;;;7.07;2.10;;;;;;;;;;5118870;27;20061;-70
2021/08/27 14:46:40;;;;;;;4.40;1.60;;;;;;;;;;5137702;27;20400;-70
2021/08/27 14:49:07;;;;;;;6.53;2.10;;;;;;;;;;5136756;27;20023;-70
2021/08/27 14:51:33;;;;;;;5.07;2.30;;;;;;;;;;5118548;27;20463;-70
2021/08/27 14:53:59;;;;;;;4.78;2.08;;;;;;;;;;5118501;27;20034;-70
2021/08/27 14:56:25;;;;;;;3.72;1.98;;;;;;;;;;5136620;27;20027;-70
2021/08/27 14:58:51;;;;;;;3.38;1.58;;;;;;;;;;5118364;27;20030;-71
2021/08/27 15:01:18;;;;;;;4.55;1.98;;;;;;;;;;5136818;27;20448;-71
2021/08/27 15:03:44;;;;;;;5.85;2.40;;;;;;;;;;5136332;27;20020;-70
2021/08/27 15:06:10;;;;;;;3.28;1.52;;;;;;;;;;5136671;27;20031;-70
2021/08/27 15:08:36;;;;;;;4.57;1.55;;;;;;;;;;5118309;27;20023;-70
2021/08/27 15:11:02;;;;;;;3.40;1.50;;;;;;;;;;5136338;27;20181;-70
2021/08/27 15:13:29;;;;;;;4.72;1.85;;;;;;;;;;5136527;27;20076;-70
2021/08/27 15:15:57;;;;;;;3.88;1.92;;;;;;;;;;5118018;27;20023;-70
2021/08/27 15:18:23;;;;;;;4.60;1.98;;;;;;;;;;5135802;27;20116;-69
2021/08/27 15:20:50;;;;;;;3.45;1.75;;;;;;;;;;5136531;27;20098;-70
2021/08/27 15:23:16;;;;;;;6.55;2.22;;;;;;;;;;5136546;27;20090;-70
2021/08/27 15:25:42;;;;;;;4.07;1.80;;;;;;;;;;5117513;27;20080;-69
2021/08/27 15:28:08;;;;;;;3.58;1.88;;;;;;;;;;5136333;27;20476;-69
2021/08/27 15:30:34;;;;;;;4.68;1.88;;;;;;;;;;5136274;27;20030;-69
2021/08/27 15:33:00;;;;;;;2.92;1.63;;;;;;;;;;5135757;27;20030;-70
2021/08/27 15:35:27;;;;;;;5.07;2.15;;;;;;;;;;5117668;27;20022;-70
2021/08/27 15:37:53;;;;;;;4.28;1.88;;;;;;;;;;5135607;27;20069;-70
2021/08/27 15:40:19;;;;;;;3.60;1.75;;;;;;;;;;5135918;27;20031;-70
2021/08/27 15:42:46;;;;;;;4.03;1.92;;;;;;;;;;5135885;27;20474;-70
2021/08/27 15:45:13;;;;;;;4.65;2.08;;;;;;;;;;5117039;27;20463;-71
2021/08/27 15:47:39;;;;;;;7.70;2.38;;;;;;;;;;5135853;27;20011;-70
2021/08/27 15:50:05;;;;;;;4.40;1.88;;;;;;;;;;5135841;27;20015;-70
2021/08/27 15:52:32;;;;;;;4.55;2.28;;;;;;;;;;5135669;27;20023;-70
2021/08/27 15:54:58;;;;;;;4.05;2.17;;;;;;;;;;5135731;27;20030;-70
2021/08/27 15:57:24;;;;;;;10.00;2.85;;;;;;;;;;5135783;27;20031;-70
2021/08/27 15:59:53;;;;;;;5.80;2.50;;;;;;;;;;5116635;27;20039;-70
2021/08/27 16:02:21;;;;;;;5.72;2.20;;;;;;;;;;5135611;27;20178;-69
2021/08/27 16:04:47;;;;;;;4.88;2.35;;;;;;;;;;5135522;27;20027;-69
2021/08/27 16:07:14;;;;;;;4.72;2.90;;;;;;;;;;5135405;27;20368;-70
2021/08/27 16:09:41;;;;;;;5.20;1.88;;;;;;;;;;5135551;27;20023;-71
2021/08/27 16:12:10;;;;;;;4.05;1.80;;;;;;;;;;5135462;27;20383;-70